createdAt,value
2019-01-12T00:00:24.173Z,85.23
2019-01-12T00:02:51.251Z,85.08
2019-01-12T00:05:18.465Z,84.98
2019-01-12T00:07:45.697Z,85.19
2019-01-12T00:10:12.887Z,85.44
2019-01-12T00:12:40.371Z,85.40
2019-01-12T00:15:07.550Z,85.01
2019-01-12T00:17:34.759Z,84.96
2019-01-12T00:20:02.037Z,84.96
2019-01-12T00:22:29.325Z,85.04
2019-01-12T00:24:56.517Z,85.12
2019-01-12T00:27:23.711Z,84.73
2019-01-12T00:29:51.180Z,84.23
2019-01-12T00:32:18.391Z,84.18
2019-01-12T00:34:45.448Z,84.32
2019-01-12T00:37:12.629Z,84.46
2019-01-12T00:39:39.748Z,84.59
2019-01-12T00:42:07.223Z,84.76
2019-01-12T00:44:34.378Z,84.68
2019-01-12T00:47:01.928Z,84.92
2019-01-12T00:49:29.084Z,85.18
2019-01-12T00:51:56.268Z,85.41
2019-01-12T00:54:23.478Z,85.05
2019-01-12T00:56:50.870Z,84.79
2019-01-12T00:59:18.024Z,84.44
2019-01-12T01:01:45.224Z,84.47
2019-01-12T01:04:12.382Z,84.35
2019-01-12T01:06:39.567Z,84.23
2019-01-12T01:09:08.370Z,84.23
2019-01-12T01:11:35.750Z,84.48
2019-01-12T01:14:03.056Z,84.79
2019-01-12T01:16:30.271Z,85.07
2019-01-12T01:18:57.434Z,85.36
2019-01-12T01:21:24.614Z,85.65
2019-01-12T01:23:51.806Z,85.50
2019-01-12T01:26:18.987Z,85.26
2019-01-12T01:28:46.185Z,85.16
2019-01-12T01:31:13.407Z,85.00
2019-01-12T01:33:40.570Z,84.80
2019-01-12T01:36:07.679Z,84.74
2019-01-12T01:38:34.891Z,84.68
2019-01-12T01:41:02.063Z,84.90
2019-01-12T01:43:29.256Z,85.26
2019-01-12T01:45:56.468Z,85.56
2019-01-12T01:48:23.633Z,85.79
2019-01-12T01:50:50.763Z,85.87
2019-01-12T01:53:17.979Z,85.87
2019-01-12T01:55:45.128Z,86.05
2019-01-12T01:58:12.217Z,85.52
2019-01-12T02:00:40.030Z,85.32
2019-01-12T02:03:07.113Z,85.47
2019-01-12T02:05:34.231Z,85.56
2019-01-12T02:08:01.421Z,85.58
2019-01-12T02:10:28.896Z,85.48
2019-01-12T02:12:56.112Z,85.41
2019-01-12T02:15:23.342Z,85.56
2019-01-12T02:17:50.394Z,85.76
2019-01-12T02:20:17.558Z,85.91
2019-01-12T02:22:45.084Z,85.78
2019-01-12T02:25:12.764Z,85.67
2019-01-12T02:27:39.912Z,85.76
2019-01-12T02:30:11.494Z,85.91
2019-01-12T02:32:38.646Z,85.89
2019-01-12T02:35:05.918Z,85.82
2019-01-12T02:37:33.131Z,85.84
2019-01-12T02:40:00.383Z,85.85
2019-01-12T02:42:27.544Z,85.82
2019-01-12T02:44:54.660Z,85.63
2019-01-12T02:47:21.836Z,85.45
2019-01-12T02:49:49.002Z,85.33
2019-01-12T02:52:16.214Z,85.18
2019-01-12T02:54:43.388Z,85.10
2019-01-12T02:57:10.573Z,85.04
2019-01-12T02:59:38.032Z,85.05
2019-01-12T03:02:05.211Z,85.05
2019-01-12T03:04:32.366Z,85.03
2019-01-12T03:06:59.490Z,84.99
2019-01-12T03:09:26.633Z,84.98
2019-01-12T03:11:53.812Z,84.98
2019-01-12T03:14:21.112Z,84.86
2019-01-12T03:16:48.294Z,84.37
2019-01-12T03:19:15.458Z,84.31
2019-01-12T03:21:44.523Z,84.45
2019-01-12T03:24:11.738Z,84.57
2019-01-12T03:26:38.825Z,84.87
2019-01-12T03:29:06.038Z,84.61
2019-01-12T03:31:33.089Z,84.48
2019-01-12T03:34:00.250Z,84.45
2019-01-12T03:36:27.442Z,84.66
2019-01-12T03:38:54.632Z,84.91
2019-01-12T03:41:21.791Z,85.02
2019-01-12T03:43:49.017Z,84.99
2019-01-12T03:46:16.287Z,84.91
2019-01-12T03:48:43.465Z,85.05
2019-01-12T03:51:10.896Z,85.22
2019-01-12T03:53:38.252Z,84.99
2019-01-12T03:56:05.428Z,85.06
2019-01-12T03:58:32.655Z,85.20
2019-01-12T04:00:59.832Z,85.41
2019-01-12T04:03:27.001Z,85.60
2019-01-12T04:05:54.101Z,85.84
2019-01-12T04:08:21.197Z,85.94
2019-01-12T04:10:48.380Z,85.65
2019-01-12T04:13:15.598Z,85.61
2019-01-12T04:15:42.751Z,85.62
2019-01-12T04:18:10.212Z,85.77
2019-01-12T04:20:37.406Z,86.17
2019-01-12T04:23:04.567Z,86.66
2019-01-12T04:25:33.858Z,86.91
2019-01-12T04:28:01.190Z,86.94
2019-01-12T04:30:28.368Z,87.06
2019-01-12T04:32:55.420Z,87.21
2019-01-12T04:35:22.625Z,87.36
2019-01-12T04:37:49.788Z,86.64
2019-01-12T04:40:18.063Z,86.38
2019-01-12T04:42:45.295Z,86.56
2019-01-12T04:45:12.527Z,86.70
2019-01-12T04:47:39.582Z,86.92
2019-01-12T04:50:10.906Z,87.27
2019-01-12T04:52:38.096Z,87.38
2019-01-12T04:55:05.372Z,87.47
2019-01-12T04:57:32.885Z,87.53
2019-01-12T05:00:00.162Z,87.62
2019-01-12T05:02:28.024Z,87.62
2019-01-12T05:04:55.212Z,87.59
2019-01-12T05:07:22.611Z,87.52
2019-01-12T05:09:49.760Z,87.35
2019-01-12T05:12:16.966Z,86.78
2019-01-12T05:14:44.110Z,86.09
2019-01-12T05:17:11.320Z,85.53
2019-01-12T05:19:38.492Z,85.31
2019-01-12T05:22:05.692Z,85.29
2019-01-12T05:24:32.867Z,85.57
2019-01-12T05:27:00.049Z,86.04
2019-01-12T05:29:27.238Z,86.45
2019-01-12T05:31:54.294Z,86.72
2019-01-12T05:34:22.397Z,86.82
2019-01-12T05:36:49.886Z,86.99
2019-01-12T05:39:17.055Z,87.20
2019-01-12T05:41:44.273Z,87.38
2019-01-12T05:44:11.439Z,87.54
2019-01-12T05:46:38.628Z,87.68
2019-01-12T05:49:05.845Z,87.71
2019-01-12T05:51:33.054Z,87.76
2019-01-12T05:54:00.250Z,87.78
2019-01-12T05:56:27.495Z,87.79
2019-01-12T05:58:54.717Z,87.89
2019-01-12T06:01:21.903Z,88.03
2019-01-12T06:03:49.111Z,87.96
2019-01-12T06:06:16.311Z,87.93
2019-01-12T06:08:43.494Z,87.90
2019-01-12T06:11:10.669Z,87.92
2019-01-12T06:13:37.757Z,87.92
2019-01-12T06:16:05.007Z,87.94
2019-01-12T06:18:32.286Z,87.89
2019-01-12T06:20:59.336Z,87.62
2019-01-12T06:23:26.546Z,87.35
2019-01-12T06:25:53.731Z,86.81
2019-01-12T06:28:21.236Z,86.49
2019-01-12T06:30:48.473Z,86.45
2019-01-12T06:33:15.548Z,86.60
2019-01-12T06:35:42.940Z,86.68
2019-01-12T06:38:10.145Z,86.80
2019-01-12T06:40:37.332Z,86.94
2019-01-12T06:43:04.528Z,87.06
2019-01-12T06:45:31.681Z,87.01
2019-01-12T06:47:58.770Z,86.75
2019-01-12T06:50:25.819Z,86.59
2019-01-12T06:52:52.995Z,86.59
2019-01-12T06:55:20.089Z,86.58
2019-01-12T06:57:47.315Z,86.42
2019-01-12T07:00:16.387Z,85.96
2019-01-12T07:02:43.589Z,85.71
2019-01-12T07:05:10.769Z,85.69
2019-01-12T07:07:38.241Z,85.53
2019-01-12T07:10:06.440Z,85.28
2019-01-12T07:12:33.606Z,85.35
2019-01-12T07:15:00.795Z,85.71
2019-01-12T07:17:28.004Z,86.03
2019-01-12T07:19:55.171Z,86.36
2019-01-12T07:22:22.331Z,86.74
2019-01-12T07:24:49.538Z,87.08
2019-01-12T07:27:16.696Z,87.46
2019-01-12T07:29:43.875Z,87.86
2019-01-12T07:32:11.087Z,88.27
2019-01-12T07:34:38.504Z,88.50
2019-01-12T07:37:05.587Z,88.77
2019-01-12T07:39:32.764Z,89.02
2019-01-12T07:41:59.821Z,89.18
2019-01-12T07:44:27.019Z,89.22
2019-01-12T07:46:54.615Z,89.03
2019-01-12T07:49:21.783Z,88.71
2019-01-12T07:51:48.966Z,88.27
2019-01-12T07:54:16.458Z,87.79
2019-01-12T07:56:43.615Z,87.39
2019-01-12T07:59:10.829Z,86.87
2019-01-12T08:01:38.026Z,86.38
2019-01-12T08:04:05.202Z,86.12
2019-01-12T08:06:32.467Z,85.97
2019-01-12T08:08:59.658Z,85.32
2019-01-12T08:11:27.089Z,84.78
2019-01-12T08:13:54.202Z,84.30
2019-01-12T08:16:21.380Z,83.85
2019-01-12T08:18:48.441Z,82.74
2019-01-12T08:21:15.888Z,81.71
2019-01-12T08:23:43.106Z,81.82
2019-01-12T08:26:10.252Z,81.86
2019-01-12T08:28:37.448Z,81.65
2019-01-12T08:31:04.768Z,81.41
2019-01-12T08:33:31.954Z,81.01
2019-01-12T08:35:59.075Z,80.92
2019-01-12T08:38:26.263Z,80.39
2019-01-12T08:40:53.426Z,79.58
2019-01-12T08:43:20.628Z,78.93
2019-01-12T08:45:47.797Z,77.74
2019-01-12T08:48:14.885Z,77.92
2019-01-12T08:50:41.999Z,78.32
2019-01-12T08:53:09.303Z,77.87
2019-01-12T08:55:36.457Z,76.80
2019-01-12T08:58:03.677Z,75.81
2019-01-12T09:00:30.789Z,76.18
2019-01-12T09:02:57.970Z,75.74
2019-01-12T09:05:25.080Z,74.68
2019-01-12T09:07:52.296Z,74.41
2019-01-12T09:10:20.411Z,74.28
2019-01-12T09:12:47.689Z,74.12
2019-01-12T09:15:15.136Z,74.25
2019-01-12T09:17:42.553Z,73.95
2019-01-12T09:20:11.087Z,72.98
2019-01-12T09:22:38.277Z,72.12
2019-01-12T09:25:06.433Z,71.58
2019-01-12T09:27:33.624Z,70.29
2019-01-12T09:30:00.837Z,69.66
2019-01-12T09:32:28.008Z,68.65
2019-01-12T09:34:55.183Z,68.33
2019-01-12T09:37:22.455Z,67.77
2019-01-12T09:39:49.957Z,68.13
2019-01-12T09:42:17.047Z,68.91
2019-01-12T09:44:44.215Z,69.45
2019-01-12T09:47:11.268Z,69.96
2019-01-12T09:49:38.487Z,70.86
2019-01-12T09:52:05.664Z,71.51
2019-01-12T09:54:32.881Z,71.76
2019-01-12T09:57:00.079Z,72.44
2019-01-12T09:59:27.331Z,72.44
2019-01-12T10:01:55.342Z,72.54
2019-01-12T10:04:22.534Z,73.19
2019-01-12T10:06:49.766Z,72.39
2019-01-12T10:09:16.974Z,72.54
2019-01-12T10:11:44.469Z,72.18
2019-01-12T10:14:11.688Z,72.63
2019-01-12T10:16:38.851Z,73.02
2019-01-12T10:19:06.340Z,72.70
2019-01-12T10:21:33.843Z,72.65
2019-01-12T10:24:00.928Z,72.97
2019-01-12T10:26:28.077Z,73.09
2019-01-12T10:28:55.194Z,73.26
2019-01-12T10:31:22.362Z,73.18
2019-01-12T10:33:49.524Z,73.83
2019-01-12T10:36:16.866Z,74.19
2019-01-12T10:38:44.339Z,74.11
2019-01-12T10:41:11.582Z,74.12
2019-01-12T10:43:39.116Z,74.39
2019-01-12T10:46:06.564Z,74.75
2019-01-12T10:48:33.989Z,75.08
2019-01-12T10:51:01.123Z,74.99
2019-01-12T10:53:28.860Z,75.09
2019-01-12T10:55:56.041Z,75.62
2019-01-12T10:58:23.215Z,75.03
2019-01-12T11:00:50.421Z,74.30
2019-01-12T11:03:17.887Z,74.45
2019-01-12T11:05:45.039Z,74.84
2019-01-12T11:08:12.515Z,74.68
2019-01-12T11:10:39.709Z,73.95
2019-01-12T11:13:06.938Z,74.13
2019-01-12T11:15:34.129Z,73.58
2019-01-12T11:18:01.172Z,73.77
2019-01-12T11:20:28.409Z,73.92
2019-01-12T11:22:55.578Z,73.40
2019-01-12T11:25:22.762Z,73.51
2019-01-12T11:27:50.275Z,73.62
2019-01-12T11:30:18.074Z,73.61
2019-01-12T11:32:45.251Z,72.59
2019-01-12T11:35:12.985Z,72.35
2019-01-12T11:37:40.211Z,71.47
2019-01-12T11:40:17.824Z,70.54
2019-01-12T11:42:45.608Z,69.99
2019-01-12T11:45:13.341Z,70.15
2019-01-12T11:47:40.512Z,70.14
2019-01-12T11:50:10.499Z,69.56
2019-01-12T11:52:37.972Z,69.52
2019-01-12T11:55:05.866Z,70.24
2019-01-12T11:57:33.284Z,70.69
2019-01-12T12:00:00.487Z,71.38
2019-01-12T12:02:27.943Z,71.45
2019-01-12T12:04:55.178Z,72.16
2019-01-12T12:07:22.387Z,72.29
2019-01-12T12:09:49.583Z,72.03
2019-01-12T12:12:16.770Z,71.55
2019-01-12T12:14:43.954Z,72.26
2019-01-12T12:17:11.215Z,71.58
2019-01-12T12:19:38.737Z,72.36
2019-01-12T12:22:05.982Z,72.56
2019-01-12T12:24:33.221Z,72.01
2019-01-12T12:27:00.395Z,71.91
2019-01-12T12:29:27.583Z,71.91
2019-01-12T12:31:54.872Z,71.38
2019-01-12T12:34:21.953Z,71.15
2019-01-12T12:36:49.585Z,72.15
2019-01-12T12:39:16.851Z,71.78
2019-01-12T12:41:44.313Z,72.03
2019-01-12T12:44:11.464Z,72.10
2019-01-12T12:46:38.934Z,72.21
2019-01-12T12:49:06.091Z,72.35
2019-01-12T12:51:33.263Z,72.28
2019-01-12T12:54:00.602Z,73.19
2019-01-12T12:56:28.019Z,73.09
2019-01-12T12:58:55.193Z,72.82
2019-01-12T13:01:22.377Z,72.98
2019-01-12T13:03:49.537Z,71.61
2019-01-12T13:06:16.774Z,71.93
2019-01-12T13:08:48.452Z,72.29
2019-01-12T13:11:12.961Z,72.32
2019-01-12T13:13:41.290Z,72.27
2019-01-12T13:16:08.404Z,72.00
2019-01-12T13:18:35.605Z,71.78
2019-01-12T13:21:02.847Z,71.72
2019-01-12T13:23:30.367Z,72.16
2019-01-12T13:25:57.563Z,72.68
2019-01-12T13:28:24.757Z,72.28
2019-01-12T13:30:52.207Z,72.79
2019-01-12T13:33:19.590Z,72.68
2019-01-12T13:35:46.657Z,71.72
2019-01-12T13:38:13.920Z,71.39
2019-01-12T13:40:41.090Z,71.00
2019-01-12T13:43:08.279Z,71.49
2019-01-12T13:45:35.457Z,71.37
2019-01-12T13:48:03.188Z,72.00
2019-01-12T13:50:30.288Z,71.87
2019-01-12T13:52:57.514Z,72.07
2019-01-12T13:55:24.702Z,72.21
2019-01-12T13:57:51.766Z,72.85
2019-01-12T14:00:30.324Z,72.47
2019-01-12T14:02:57.522Z,72.80
2019-01-12T14:05:24.748Z,72.48
2019-01-12T14:07:56.045Z,73.75
2019-01-12T14:10:21.366Z,74.03
2019-01-12T14:12:48.658Z,73.89
2019-01-12T14:15:16.345Z,74.91
2019-01-12T14:17:43.428Z,75.73
2019-01-12T14:20:16.483Z,76.43
2019-01-12T14:22:43.847Z,76.73
2019-01-12T14:25:11.006Z,77.74
2019-01-12T14:27:38.156Z,77.15
2019-01-12T14:30:08.109Z,77.47
2019-01-12T14:32:35.567Z,77.92
2019-01-12T14:35:03.260Z,78.14
2019-01-12T14:37:30.498Z,78.33
2019-01-12T14:39:57.880Z,78.75
2019-01-12T14:42:25.371Z,78.57
2019-01-12T14:44:52.865Z,79.08
2019-01-12T14:47:20.057Z,79.69
2019-01-12T14:49:47.117Z,80.01
2019-01-12T14:52:14.354Z,79.33
2019-01-12T14:54:41.526Z,79.72
2019-01-12T14:57:08.717Z,80.36
2019-01-12T14:59:35.953Z,80.75
2019-01-12T15:02:03.211Z,80.82
2019-01-12T15:04:30.380Z,80.83
2019-01-12T15:06:57.647Z,81.37
2019-01-12T15:09:24.790Z,80.72
2019-01-12T15:11:51.961Z,80.93
2019-01-12T15:14:19.448Z,80.52
2019-01-12T15:16:46.601Z,80.55
2019-01-12T15:19:14.053Z,80.47
2019-01-12T15:21:41.564Z,80.65
2019-01-12T15:24:10.179Z,80.79
2019-01-12T15:26:37.373Z,81.09
2019-01-12T15:29:04.580Z,81.22
2019-01-12T15:31:31.725Z,81.33
2019-01-12T15:33:58.888Z,81.21
2019-01-12T15:36:26.042Z,81.46
2019-01-12T15:38:53.164Z,81.56
2019-01-12T15:41:20.670Z,81.96
2019-01-12T15:43:47.861Z,81.64
2019-01-12T15:46:15.390Z,81.17
2019-01-12T15:48:42.574Z,81.43
2019-01-12T15:51:09.696Z,81.41
2019-01-12T15:53:36.876Z,81.19
2019-01-12T15:56:04.085Z,80.76
2019-01-12T15:58:31.303Z,80.97
2019-01-12T16:00:58.511Z,80.97
2019-01-12T16:03:25.982Z,81.29
2019-01-12T16:05:53.099Z,81.33
2019-01-12T16:08:20.445Z,81.69
2019-01-12T16:10:47.644Z,81.61
2019-01-12T16:13:14.748Z,81.64
2019-01-12T16:15:41.901Z,82.12
2019-01-12T16:18:09.404Z,81.60
2019-01-12T16:20:37.904Z,81.38
2019-01-12T16:23:05.150Z,81.95
2019-01-12T16:25:32.323Z,82.22
2019-01-12T16:27:59.527Z,82.48
2019-01-12T16:30:26.715Z,82.75
2019-01-12T16:32:53.885Z,82.96
2019-01-12T16:35:21.144Z,82.65
2019-01-12T16:37:48.327Z,82.63
2019-01-12T16:40:17.569Z,82.64
2019-01-12T16:42:44.820Z,82.56
2019-01-12T16:45:12.272Z,82.19
2019-01-12T16:47:39.368Z,82.06
2019-01-12T16:50:06.609Z,82.37
2019-01-12T16:52:34.070Z,82.70
2019-01-12T16:55:01.305Z,82.80
2019-01-12T16:57:28.603Z,83.54
2019-01-12T16:59:55.786Z,83.93
2019-01-12T17:02:23.028Z,84.03
2019-01-12T17:04:50.208Z,84.35
2019-01-12T17:07:17.409Z,84.76
2019-01-12T17:09:44.911Z,84.90
2019-01-12T17:12:12.198Z,85.17
2019-01-12T17:14:39.372Z,85.53
2019-01-12T17:17:06.604Z,86.06
2019-01-12T17:19:34.116Z,86.28
2019-01-12T17:22:01.527Z,85.49
2019-01-12T17:24:28.801Z,84.86
2019-01-12T17:26:55.997Z,84.91
2019-01-12T17:29:23.242Z,85.06
2019-01-12T17:31:50.606Z,85.39
2019-01-12T17:34:17.792Z,85.41
2019-01-12T17:36:44.856Z,85.28
2019-01-12T17:39:12.059Z,85.23
2019-01-12T17:41:39.532Z,85.28
2019-01-12T17:44:06.983Z,84.97
2019-01-12T17:46:34.405Z,84.57
2019-01-12T17:49:01.605Z,84.54
2019-01-12T17:51:29.085Z,84.74
2019-01-12T17:53:56.307Z,84.37
2019-01-12T17:56:23.517Z,84.33
2019-01-12T17:58:50.999Z,84.53
2019-01-12T18:01:18.154Z,84.45
2019-01-12T18:03:45.451Z,84.38
2019-01-12T18:06:13.732Z,84.18
2019-01-12T18:08:41.060Z,83.68
2019-01-12T18:11:08.283Z,83.96
2019-01-12T18:13:35.390Z,84.14
2019-01-12T18:16:02.712Z,84.62
2019-01-12T18:18:29.933Z,84.64
2019-01-12T18:20:57.025Z,84.73
2019-01-12T18:23:24.201Z,84.39
2019-01-12T18:25:51.749Z,84.47
2019-01-12T18:28:19.249Z,84.52
2019-01-12T18:30:46.443Z,83.78
2019-01-12T18:33:13.554Z,83.77
2019-01-12T18:35:40.720Z,84.13
2019-01-12T18:38:07.925Z,84.33
2019-01-12T18:40:35.173Z,84.28
2019-01-12T18:43:02.414Z,83.71
2019-01-12T18:45:29.659Z,83.90
2019-01-12T18:47:56.850Z,83.82
2019-01-12T18:50:25.129Z,84.17
2019-01-12T18:52:53.144Z,84.51
2019-01-12T18:55:20.688Z,84.35
2019-01-12T18:57:48.314Z,84.02
2019-01-12T19:00:18.555Z,84.02
2019-01-12T19:02:46.187Z,84.02
2019-01-12T19:05:13.862Z,84.04
2019-01-12T19:07:41.316Z,83.62
2019-01-12T19:10:09.160Z,83.68
2019-01-12T19:12:36.479Z,83.95
2019-01-12T19:15:05.599Z,84.14
2019-01-12T19:17:32.847Z,83.99
2019-01-12T19:20:00.291Z,82.78
2019-01-12T19:22:27.747Z,83.09
2019-01-12T19:24:54.948Z,83.20
2019-01-12T19:27:22.135Z,83.58
2019-01-12T19:29:49.325Z,84.12
2019-01-12T19:32:16.545Z,84.54
2019-01-12T19:34:44.025Z,84.13
2019-01-12T19:37:11.145Z,84.17
2019-01-12T19:39:38.658Z,83.87
2019-01-12T19:42:05.995Z,83.91
2019-01-12T19:44:33.196Z,84.22
2019-01-12T19:47:00.389Z,84.49
2019-01-12T19:49:27.665Z,84.85
2019-01-12T19:51:55.179Z,85.33
2019-01-12T19:54:22.402Z,85.17
2019-01-12T19:56:49.626Z,84.95
2019-01-12T19:59:17.107Z,84.96
2019-01-12T20:01:44.765Z,85.19
2019-01-12T20:04:11.931Z,85.31
2019-01-12T20:06:39.074Z,85.58
2019-01-12T20:09:08.101Z,85.77
2019-01-12T20:11:35.404Z,85.90
2019-01-12T20:14:03.105Z,85.63
2019-01-12T20:16:30.628Z,85.69
2019-01-12T20:18:57.701Z,86.03
2019-01-12T20:21:24.897Z,85.96
2019-01-12T20:23:51.979Z,85.81
2019-01-12T20:26:19.168Z,85.58
2019-01-12T20:28:47.315Z,84.97
2019-01-12T20:31:24.013Z,84.88
2019-01-12T20:34:47.756Z,85.00
2019-01-12T20:37:51.965Z,84.75
2019-01-12T20:40:55.901Z,85.38
2019-01-12T20:44:02.268Z,85.74
2019-01-12T20:47:13.212Z,86.10
2019-01-12T20:50:06.233Z,85.91
2019-01-12T20:53:03.206Z,85.91
2019-01-12T20:55:42.875Z,86.06
2019-01-12T20:58:41.948Z,85.27
2019-01-12T21:02:12.191Z,84.87
2019-01-12T21:05:11.667Z,85.26
2019-01-12T21:07:56.324Z,86.07
2019-01-12T21:11:18.730Z,86.37
2019-01-12T21:14:01.417Z,86.42
2019-01-12T21:16:32.248Z,86.47
2019-01-12T21:18:59.705Z,86.62
2019-01-12T21:21:26.957Z,86.82
2019-01-12T21:23:54.167Z,86.69
2019-01-12T21:26:21.237Z,86.20
2019-01-12T21:28:48.473Z,85.37
2019-01-12T21:31:15.629Z,85.43
2019-01-12T21:33:43.367Z,85.93
2019-01-12T21:36:10.631Z,86.31
2019-01-12T21:38:38.798Z,86.65
2019-01-12T21:41:05.969Z,86.97
2019-01-12T21:43:33.223Z,87.39
2019-01-12T21:46:00.385Z,87.73
2019-01-12T21:48:28.268Z,87.93
2019-01-12T21:50:55.477Z,87.91
2019-01-12T21:53:22.780Z,87.90
2019-01-12T21:55:49.973Z,88.00
2019-01-12T21:58:17.821Z,88.07
2019-01-12T22:00:45.153Z,87.79
2019-01-12T22:03:12.257Z,87.45
2019-01-12T22:05:39.731Z,87.28
2019-01-12T22:08:06.888Z,87.36
2019-01-12T22:10:34.108Z,87.57
2019-01-12T22:13:01.357Z,87.72
2019-01-12T22:15:28.656Z,87.88
2019-01-12T22:17:55.742Z,88.00
2019-01-12T22:20:23.238Z,88.03
2019-01-12T22:22:50.410Z,87.96
2019-01-12T22:25:17.623Z,87.83
2019-01-12T22:27:45.162Z,87.67
2019-01-12T22:30:14.460Z,87.56
2019-01-12T22:32:41.667Z,87.24
2019-01-12T22:35:08.872Z,86.87
2019-01-12T22:37:36.308Z,86.86
2019-01-12T22:40:06.941Z,86.81
2019-01-12T22:42:34.182Z,86.71
2019-01-12T22:45:01.254Z,86.82
2019-01-12T22:47:28.570Z,86.91
2019-01-12T22:49:55.677Z,86.75
2019-01-12T22:52:23.131Z,86.44
2019-01-12T22:54:51.160Z,86.60
2019-01-12T22:57:18.356Z,86.85
2019-01-12T22:59:45.566Z,86.95
2019-01-12T23:02:12.763Z,86.92
2019-01-12T23:04:39.975Z,86.77
2019-01-12T23:07:11.421Z,86.69
2019-01-12T23:09:36.574Z,86.48
2019-01-12T23:12:04.180Z,86.28
2019-01-12T23:14:32.976Z,85.57
2019-01-12T23:17:00.329Z,84.64
2019-01-12T23:19:27.773Z,84.51
2019-01-12T23:21:54.943Z,84.73
2019-01-12T23:24:22.027Z,84.48
2019-01-12T23:26:49.983Z,84.65
2019-01-12T23:29:17.167Z,84.72
2019-01-12T23:31:44.253Z,84.87
2019-01-12T23:34:11.480Z,84.44
2019-01-12T23:36:38.807Z,84.25
2019-01-12T23:39:09.818Z,84.46
2019-01-12T23:41:37.026Z,84.40
2019-01-12T23:44:04.247Z,84.05
2019-01-12T23:46:31.428Z,84.26
2019-01-12T23:48:58.612Z,84.51
2019-01-12T23:51:25.821Z,84.69
2019-01-12T23:53:53.251Z,84.76
2019-01-12T23:56:21.096Z,84.50
2019-01-12T23:58:48.265Z,84.37
